Time;durP1;ratioP1;P1;durP2;ratioP2;P2;SDS_P1;SDS_P2;PMS_P1;PMS_P2;Temp;Humidity;BMP_temperature;BMP_pressure;BME280_temperature;BME280_humidity;BME280_pressure;Samples;Min_cycle;Max_cycle;Signal;HPM_P1;HPM_P2
2023/03/26 00:01:32;;;;;;;16.45;3.50;;;8.00;99.90;;;;;;6209132;23;20446;-62
2023/03/26 00:03:58;;;;;;;15.43;3.47;;;8.00;99.90;;;;;;6207166;23;20458;-61
2023/03/26 00:06:27;;;;;;;23.35;4.53;;;8.00;99.90;;;;;;6208237;23;20016;-60
2023/03/26 00:08:55;;;;;;;15.93;3.50;;;8.00;99.90;;;;;;6208241;23;20013;-56
2023/03/26 00:11:23;;;;;;;15.57;3.72;;;8.00;99.90;;;;;;6206995;23;20027;-60
2023/03/26 00:13:48;;;;;;;22.52;4.70;;;8.00;99.90;;;;;;6208454;23;20009;-56
2023/03/26 00:16:18;;;;;;;17.85;5.70;;;7.90;99.90;;;;;;6208134;23;20012;-57
2023/03/26 00:18:45;;;;;;;21.27;4.35;;;7.80;99.90;;;;;;6208625;23;20012;-60
2023/03/26 00:21:17;;;;;;;23.10;4.00;;;7.80;99.90;;;;;;6208256;23;20016;-62
2023/03/26 00:23:44;;;;;;;23.92;4.40;;;7.80;99.90;;;;;;6206737;23;20052;-60
2023/03/26 00:26:10;;;;;;;25.50;3.47;;;7.70;99.90;;;;;;6208443;23;20020;-59
2023/03/26 00:28:39;;;;;;;16.25;4.55;;;7.60;99.90;;;;;;6208189;23;20009;-59
2023/03/26 00:31:07;;;;;;;25.70;3.63;;;7.60;99.90;;;;;;6206987;23;20151;-60
2023/03/26 00:33:37;;;;;;;20.92;3.63;;;7.60;99.90;;;;;;6208985;23;20393;-59
2023/03/26 00:36:04;;;;;;;22.73;4.97;;;7.60;99.90;;;;;;6208593;23;20493;-57
2023/03/26 00:38:32;;;;;;;15.38;3.35;;;7.60;99.90;;;;;;6208127;23;20016;-60
2023/03/26 00:41:04;;;;;;;22.85;4.00;;;7.60;99.90;;;;;;6208428;23;20014;-59
2023/03/26 00:43:32;;;;;;;21.38;4.10;;;7.70;99.90;;;;;;6204733;23;20032;-59
2023/03/26 00:45:58;;;;;;;22.77;3.80;;;7.60;99.90;;;;;;6206911;23;20092;-60
2023/03/26 00:48:28;;;;;;;15.43;3.20;;;7.60;99.90;;;;;;6208100;23;20067;-60
2023/03/26 00:50:55;;;;;;;21.63;3.45;;;7.60;99.90;;;;;;6206998;23;20063;-59
2023/03/26 00:53:21;;;;;;;14.10;3.83;;;7.50;99.90;;;;;;6208670;23;20026;-59
2023/03/26 00:55:47;;;;;;;16.27;3.25;;;7.50;99.90;;;;;;6206882;23;20017;-61
2023/03/26 00:58:13;;;;;;;18.60;3.33;;;7.50;99.90;;;;;;6206725;23;20458;-59
2023/03/26 01:00:56;;;;;;;13.05;3.13;;;7.50;99.90;;;;;;6207113;23;20016;-60
2023/03/26 01:03:23;;;;;;;20.00;3.75;;;7.50;99.90;;;;;;6208730;23;20092;-59
2023/03/26 01:06:01;;;;;;;13.65;3.45;;;7.50;99.90;;;;;;6206557;23;20012;-56
2023/03/26 01:08:46;;;;;;;21.83;3.97;;;7.50;99.90;;;;;;6207549;23;20507;-58
2023/03/26 01:11:18;;;;;;;15.55;4.07;;;7.50;99.90;;;;;;6206498;23;20087;-57
2023/03/26 01:14:07;;;;;;;21.67;3.90;;;7.50;99.90;;;;;;6207595;23;20389;-58
2023/03/26 01:16:41;;;;;;;26.67;5.10;;;7.50;99.90;;;;;;6207756;23;20348;-57
2023/03/26 01:19:15;;;;;;;18.75;3.55;;;7.50;99.90;;;;;;6207807;23;20446;-57
2023/03/26 01:21:41;;;;;;;;;;;7.50;99.90;;;;;;6207038;23;20024;-57
2023/03/26 01:24:08;;;;;;;18.35;3.33;;;7.50;99.90;;;;;;6208132;23;19962;-56
2023/03/26 01:26:59;;;;;;;15.85;3.72;;;7.40;99.90;;;;;;6207297;23;20354;-60
2023/03/26 01:29:43;;;;;;;20.33;4.10;;;7.40;99.90;;;;;;6207278;23;20017;-59
2023/03/26 01:32:21;;;;;;;26.33;3.83;;;7.40;99.90;;;;;;6207756;23;20016;-58
2023/03/26 01:35:07;;;;;;;17.85;3.50;;;7.40;99.90;;;;;;6206047;23;20020;-60
2023/03/26 01:37:57;;;;;;;19.15;3.40;;;7.40;99.90;;;;;;6207190;23;20016;-62
2023/03/26 01:40:41;;;;;;;22.42;4.47;;;7.40;99.90;;;;;;6205952;23;20346;-58
2023/03/26 01:43:25;;;;;;;15.75;4.05;;;7.40;99.90;;;;;;6207050;23;20016;-59
2023/03/26 01:45:51;;;;;;;15.38;3.80;;;7.30;99.90;;;;;;6206847;23;20263;-59
2023/03/26 01:48:17;;;;;;;21.38;4.03;;;7.30;99.90;;;;;;6206212;23;20020;-57
2023/03/26 01:50:43;;;;;;;20.50;3.42;;;7.20;99.90;;;;;;6206518;23;20017;-56
2023/03/26 01:53:11;;;;;;;26.20;4.22;;;7.30;99.90;;;;;;6207421;23;20293;-56
2023/03/26 01:56:01;;;;;;;23.05;4.43;;;7.30;99.90;;;;;;6208498;23;20027;-56
2023/03/26 01:58:36;;;;;;;19.77;4.07;;;7.20;99.90;;;;;;6204879;23;20013;-60
2023/03/26 02:01:23;;;;;;;22.77;4.25;;;7.10;99.90;;;;;;6207741;23;20053;-56
2023/03/26 02:04:21;;;;;;;20.38;3.72;;;7.20;99.90;;;;;;6207076;23;20052;-59
2023/03/26 02:07:00;;;;;;;23.15;4.60;;;7.10;99.90;;;;;;6203148;23;20019;-58
2023/03/26 02:09:31;;;;;;;21.00;4.00;;;7.10;99.90;;;;;;6205088;23;20012;-59
2023/03/26 02:11:58;;;;;;;25.67;3.97;;;7.10;99.90;;;;;;6206308;23;20052;-58
2023/03/26 02:14:24;;;;;;;18.02;3.35;;;7.20;99.90;;;;;;6209009;23;20108;-59
2023/03/26 02:16:51;;;;;;;19.05;3.63;;;7.10;99.90;;;;;;6207494;23;20074;-58
2023/03/26 02:19:20;;;;;;;23.40;4.55;;;7.20;99.90;;;;;;6207386;23;20012;-58
2023/03/26 02:21:50;;;;;;;24.00;4.35;;;7.20;99.90;;;;;;6204294;23;20016;-57
2023/03/26 02:24:18;;;;;;;24.85;4.03;;;7.10;99.90;;;;;;6205781;23;20044;-58
2023/03/26 02:26:44;;;;;;;19.92;3.83;;;7.10;99.90;;;;;;6206436;23;20017;-57
2023/03/26 02:29:12;;;;;;;27.05;4.10;;;7.10;99.90;;;;;;6207586;23;20103;-57
2023/03/26 02:31:38;;;;;;;21.48;4.28;;;7.10;99.90;;;;;;6207567;23;20013;-61
2023/03/26 02:34:04;;;;;;;28.35;3.80;;;7.20;99.90;;;;;;6205509;23;20319;-57
2023/03/26 02:36:29;;;;;;;29.02;4.38;;;7.20;99.90;;;;;;6205578;23;20051;-56
2023/03/26 02:38:59;;;;;;;23.77;3.90;;;7.20;99.90;;;;;;6205748;23;20474;-60
2023/03/26 02:41:24;;;;;;;19.58;3.70;;;7.20;99.90;;;;;;6180070;23;20020;-57
2023/03/26 02:43:50;;;;;;;22.02;3.92;;;7.20;99.90;;;;;;6206696;23;20016;-61
2023/03/26 02:46:16;;;;;;;23.40;3.78;;;7.20;99.90;;;;;;6205970;23;20020;-60
2023/03/26 02:48:42;;;;;;;28.15;4.35;;;7.20;99.90;;;;;;6204680;23;20017;-59
2023/03/26 02:51:09;;;;;;;29.13;5.47;;;7.20;99.90;;;;;;6207156;23;20345;-58
2023/03/26 02:53:36;;;;;;;21.20;4.40;;;7.20;99.90;;;;;;6205583;23;20054;-57
2023/03/26 02:56:02;;;;;;;21.60;4.20;;;7.20;99.90;;;;;;6206132;23;20016;-58
2023/03/26 02:58:28;;;;;;;19.38;3.90;;;7.20;99.90;;;;;;6204878;23;20031;-59
2023/03/26 03:00:55;;;;;;;18.77;4.25;;;7.30;99.90;;;;;;6205172;23;20021;-59
2023/03/26 03:03:23;;;;;;;19.63;4.50;;;7.30;99.90;;;;;;6205171;23;20021;-60
2023/03/26 03:05:53;;;;;;;18.98;4.00;;;7.30;99.90;;;;;;6203288;23;20016;-59
2023/03/26 03:08:20;;;;;;;22.17;3.83;;;7.30;99.90;;;;;;6204653;23;20095;-60
2023/03/26 03:11:00;;;;;;;19.60;3.75;;;7.30;99.90;;;;;;6205024;23;20462;-57
2023/03/26 03:13:26;;;;;;;18.75;3.67;;;7.30;99.90;;;;;;6206371;23;20013;-56
2023/03/26 03:15:52;;;;;;;20.80;4.25;;;7.30;99.90;;;;;;6207180;23;20017;-60
2023/03/26 03:18:18;;;;;;;27.45;4.90;;;7.20;99.90;;;;;;6204673;23;20281;-59
2023/03/26 03:20:44;;;;;;;23.45;4.13;;;7.20;99.90;;;;;;6205083;23;20048;-57
2023/03/26 03:23:10;;;;;;;25.80;3.83;;;7.20;99.90;;;;;;6206722;23;20050;-58
2023/03/26 03:25:37;;;;;;;21.95;3.83;;;7.10;99.90;;;;;;6207136;23;20024;-59
2023/03/26 03:28:03;;;;;;;20.73;4.18;;;7.10;99.90;;;;;;6204777;23;20496;-59
2023/03/26 03:30:29;;;;;;;19.45;3.55;;;7.00;99.90;;;;;;6205211;23;20040;-59
2023/03/26 03:32:57;;;;;;;17.80;3.70;;;6.90;99.90;;;;;;6205208;23;20020;-59
2023/03/26 03:35:24;;;;;;;23.48;4.38;;;6.90;99.90;;;;;;6207076;23;20072;-58
2023/03/26 03:37:50;;;;;;;24.80;4.18;;;6.90;99.90;;;;;;6179870;23;20016;-60
2023/03/26 03:40:16;;;;;;;19.15;3.22;;;6.80;99.90;;;;;;6205918;23;20478;-56
2023/03/26 03:42:41;;;;;;;16.95;3.72;;;6.80;99.90;;;;;;6205804;23;20024;-59
2023/03/26 03:45:08;;;;;;;16.02;3.17;;;6.80;99.90;;;;;;6207026;23;20047;-56
2023/03/26 03:47:33;;;;;;;15.40;3.33;;;6.70;99.90;;;;;;6206767;23;20434;-56
2023/03/26 03:49:59;;;;;;;18.10;3.28;;;6.60;99.90;;;;;;6203918;23;20019;-57
2023/03/26 03:52:26;;;;;;;15.20;3.00;;;6.50;99.90;;;;;;6207277;23;20439;-60
2023/03/26 03:54:53;;;;;;;19.17;3.67;;;6.50;99.90;;;;;;6204667;23;20038;-58
2023/03/26 03:57:20;;;;;;;18.02;3.35;;;6.50;99.90;;;;;;6205271;23;20346;-57
2023/03/26 03:59:47;;;;;;;23.63;4.32;;;6.40;99.90;;;;;;6206074;23;20012;-57
2023/03/26 04:02:13;;;;;;;17.10;3.55;;;6.40;99.90;;;;;;6205407;23;20013;-57
2023/03/26 04:04:39;;;;;;;22.85;4.72;;;6.40;99.90;;;;;;6207045;23;20015;-58
2023/03/26 04:07:05;;;;;;;14.38;3.70;;;6.40;99.90;;;;;;6179748;23;20477;-60
2023/03/26 04:09:31;;;;;;;15.20;3.88;;;6.30;99.90;;;;;;6203985;23;20034;-58
2023/03/26 04:11:57;;;;;;;14.95;3.72;;;6.30;99.90;;;;;;6204389;23;20095;-60
2023/03/26 04:14:22;;;;;;;14.63;3.83;;;6.30;99.90;;;;;;6205702;23;20349;-61
2023/03/26 04:16:48;;;;;;;17.02;3.55;;;6.20;99.90;;;;;;6205732;23;20123;-62
2023/03/26 04:19:14;;;;;;;18.75;3.95;;;6.20;99.90;;;;;;6205980;23;20028;-63
2023/03/26 04:21:41;;;;;;;18.00;4.10;;;6.20;99.90;;;;;;6207628;23;20023;-57
2023/03/26 04:24:09;;;;;;;12.60;2.97;;;6.10;99.90;;;;;;6209376;23;20013;-57
2023/03/26 04:26:35;;;;;;;17.15;3.85;;;6.10;99.90;;;;;;6206790;23;20009;-57
2023/03/26 04:29:04;;;;;;;13.45;3.35;;;6.10;99.90;;;;;;6208287;23;20091;-57
2023/03/26 04:31:30;;;;;;;19.58;4.10;;;6.10;99.90;;;;;;6208191;23;20442;-57
2023/03/26 04:34:04;;;;;;;22.45;4.55;;;6.10;99.90;;;;;;6208383;23;20017;-56
2023/03/26 04:36:31;;;;;;;;;;;6.20;99.90;;;;;;6209149;23;20005;-57
2023/03/26 04:39:01;;;;;;;16.30;3.22;;;6.10;99.90;;;;;;6206559;23;19919;-57
2023/03/26 04:41:27;;;;;;;16.67;2.85;;;6.10;99.90;;;;;;6209391;23;20596;-57
2023/03/26 04:43:55;;;;;;;19.92;3.38;;;6.10;99.90;;;;;;6208515;23;20012;-55
2023/03/26 04:46:22;;;;;;;18.65;3.28;;;6.20;99.90;;;;;;6208454;23;20098;-57
2023/03/26 04:48:49;;;;;;;15.98;3.10;;;6.10;99.90;;;;;;6209027;23;20431;-56
2023/03/26 04:51:20;;;;;;;16.17;4.38;;;6.10;99.90;;;;;;6207518;23;20040;-57
2023/03/26 04:53:58;;;;;;;19.75;3.05;;;6.10;99.90;;;;;;6205707;23;20095;-57
2023/03/26 04:56:42;;;;;;;19.55;3.08;;;6.10;99.90;;;;;;6207659;23;20675;-57
2023/03/26 04:59:16;;;;;;;16.80;2.95;;;6.00;99.90;;;;;;6206523;23;20013;-58
2023/03/26 05:01:44;;;;;;;15.07;3.08;;;6.00;99.90;;;;;;6180226;23;20454;-56
2023/03/26 05:04:12;;;;;;;15.38;3.15;;;6.10;99.90;;;;;;6206310;23;20013;-57
2023/03/26 05:06:40;;;;;;;16.00;3.45;;;6.10;99.90;;;;;;6209080;23;20012;-57
2023/03/26 05:09:07;;;;;;;20.10;3.97;;;6.10;99.90;;;;;;6207123;23;20404;-57
2023/03/26 05:11:33;;;;;;;17.77;3.83;;;6.00;99.90;;;;;;6208527;23;20462;-57
2023/03/26 05:13:59;;;;;;;20.35;4.35;;;6.10;99.90;;;;;;6206375;23;20018;-56
2023/03/26 05:16:25;;;;;;;20.48;3.15;;;6.10;99.90;;;;;;6182626;23;20012;-57
2023/03/26 05:18:51;;;;;;;22.30;4.28;;;6.10;99.90;;;;;;6205302;23;20537;-57
2023/03/26 05:21:17;;;;;;;23.60;3.17;;;6.10;99.90;;;;;;6207872;23;20016;-57
2023/03/26 05:23:42;;;;;;;24.25;3.75;;;6.10;99.90;;;;;;6208619;23;20401;-57
2023/03/26 05:26:09;;;;;;;22.05;3.97;;;6.10;99.90;;;;;;6209041;23;20016;-57
2023/03/26 05:28:35;;;;;;;20.77;5.05;;;6.20;99.90;;;;;;6205448;23;20034;-57
2023/03/26 05:31:04;;;;;;;20.90;4.93;;;6.20;99.90;;;;;;6203385;23;20416;-57
2023/03/26 05:33:33;;;;;;;14.70;3.38;;;6.20;99.90;;;;;;6203722;23;20071;-59
2023/03/26 05:36:04;;;;;;;21.45;3.42;;;6.20;99.90;;;;;;6206003;23;20016;-59
2023/03/26 05:38:31;;;;;;;18.50;2.88;;;6.30;99.90;;;;;;6207937;23;20017;-59
2023/03/26 05:41:01;;;;;;;15.20;3.05;;;6.30;99.90;;;;;;6206455;23;20012;-57
2023/03/26 05:43:28;;;;;;;22.08;3.47;;;6.30;99.90;;;;;;6207139;23;20019;-59
2023/03/26 05:45:53;;;;;;;14.82;2.88;;;6.30;99.90;;;;;;6208077;23;20070;-57
2023/03/26 05:48:20;;;;;;;22.48;4.22;;;6.30;99.90;;;;;;6180068;23;20012;-56
2023/03/26 05:50:50;;;;;;;21.45;4.28;;;6.30;99.90;;;;;;6206999;23;20012;-57
2023/03/26 05:53:17;;;;;;;15.13;2.90;;;6.40;99.90;;;;;;6208846;23;20023;-59
2023/03/26 05:55:56;;;;;;;20.50;3.60;;;6.40;99.90;;;;;;6207550;23;20016;-58
2023/03/26 05:58:26;;;;;;;16.38;3.22;;;6.40;99.90;;;;;;6208699;23;20022;-59
2023/03/26 06:01:05;;;;;;;17.35;2.97;;;6.40;99.90;;;;;;6203934;23;20323;-57
2023/03/26 06:03:35;;;;;;;22.85;3.78;;;6.40;99.90;;;;;;6207440;23;20035;-57
2023/03/26 06:06:02;;;;;;;14.55;3.42;;;6.40;99.90;;;;;;6206425;23;20023;-57
2023/03/26 06:08:29;;;;;;;20.70;2.83;;;6.40;99.90;;;;;;6205956;23;20012;-59
2023/03/26 06:10:59;;;;;;;17.85;2.97;;;6.40;99.90;;;;;;6206024;23;20067;-59
2023/03/26 06:13:25;;;;;;;18.15;3.20;;;6.50;99.90;;;;;;6205936;23;20102;-58
2023/03/26 06:15:51;;;;;;;14.15;2.97;;;6.50;99.90;;;;;;6204790;23;20052;-58
2023/03/26 06:18:18;;;;;;;20.58;4.03;;;6.50;99.90;;;;;;6207111;23;20023;-58
2023/03/26 06:20:44;;;;;;;29.45;4.07;;;6.50;99.90;;;;;;6206158;23;20400;-58
2023/03/26 06:23:09;;;;;;;16.00;2.97;;;6.50;99.90;;;;;;6205793;23;20021;-55
2023/03/26 06:25:36;;;;;;;21.70;3.83;;;6.50;99.90;;;;;;6205976;23;20213;-59
2023/03/26 06:28:02;;;;;;;18.58;2.90;;;6.50;99.90;;;;;;6203307;23;20013;-59
2023/03/26 06:30:28;;;;;;;20.17;3.67;;;6.60;99.90;;;;;;6207510;23;20016;-59
2023/03/26 06:32:53;;;;;;;11.43;2.83;;;6.60;99.90;;;;;;6207698;23;20496;-59
2023/03/26 06:35:19;;;;;;;17.05;3.22;;;6.60;99.90;;;;;;6205144;23;20020;-58
2023/03/26 06:37:45;;;;;;;21.48;4.32;;;6.60;99.90;;;;;;6208079;23;20024;-59
2023/03/26 06:40:11;;;;;;;18.88;3.90;;;6.60;99.90;;;;;;6205337;23;20104;-59
2023/03/26 06:42:37;;;;;;;18.77;3.67;;;6.70;99.90;;;;;;6205899;23;20013;-57
2023/03/26 06:45:03;;;;;;;24.88;3.72;;;6.60;99.90;;;;;;6206914;23;20066;-59
2023/03/26 06:47:28;;;;;;;16.85;2.90;;;6.70;99.90;;;;;;6206769;23;20051;-56
2023/03/26 06:49:54;;;;;;;20.92;3.13;;;6.70;99.90;;;;;;6208282;23;20024;-59
2023/03/26 06:52:20;;;;;;;22.45;2.90;;;6.70;99.90;;;;;;6207566;23;20021;-58
2023/03/26 06:54:46;;;;;;;14.55;3.25;;;6.70;99.90;;;;;;6206414;23;20023;-59
2023/03/26 06:57:11;;;;;;;17.38;3.53;;;6.80;99.90;;;;;;6207412;23;20469;-58
2023/03/26 06:59:37;;;;;;;16.30;3.40;;;6.80;99.90;;;;;;6206767;23;20012;-59
2023/03/26 07:02:03;;;;;;;15.10;3.92;;;6.90;99.90;;;;;;6204505;23;20508;-59
2023/03/26 07:04:29;;;;;;;17.52;3.60;;;6.90;99.90;;;;;;6208272;23;20012;-59
2023/03/26 07:06:55;;;;;;;13.80;3.38;;;6.90;99.90;;;;;;6232077;23;20009;-59
2023/03/26 07:09:20;;;;;;;15.95;2.42;;;7.00;99.90;;;;;;6205898;23;20017;-59
2023/03/26 07:11:46;;;;;;;25.25;4.38;;;7.00;99.90;;;;;;6205781;23;20023;-59
2023/03/26 07:14:12;;;;;;;20.40;3.80;;;7.00;99.90;;;;;;6205270;23;20024;-59
2023/03/26 07:16:38;;;;;;;18.13;4.38;;;7.00;99.90;;;;;;6207853;23;20442;-58
2023/03/26 07:19:04;;;;;;;15.93;4.43;;;7.00;99.90;;;;;;6204433;23;20028;-59
2023/03/26 07:21:29;;;;;;;22.83;6.00;;;7.10;99.90;;;;;;6204989;23;20016;-59
2023/03/26 07:23:55;;;;;;;17.80;4.72;;;7.10;99.90;;;;;;6208270;23;20371;-59
2023/03/26 07:26:27;;;;;;;17.20;3.75;;;7.10;99.90;;;;;;6206913;23;20100;-59
2023/03/26 07:29:07;;;;;;;17.08;2.75;;;7.20;99.90;;;;;;6207495;23;20013;-59
2023/03/26 07:31:57;;;;;;;12.25;2.55;;;7.20;99.90;;;;;;6208422;23;20047;-59
2023/03/26 07:34:50;;;;;;;19.00;3.15;;;7.20;99.90;;;;;;6232276;23;20123;-58
2023/03/26 07:37:35;;;;;;;20.07;3.37;;;7.20;99.90;;;;;;6208420;23;20393;-58
2023/03/26 07:40:13;;;;;;;15.38;3.05;;;7.30;99.90;;;;;;6206553;23;20048;-57
2023/03/26 07:42:42;;;;;;;14.98;3.00;;;7.30;99.90;;;;;;6208790;23;20024;-59
2023/03/26 07:45:19;;;;;;;10.73;2.60;;;7.30;99.90;;;;;;6204140;23;20020;-56
2023/03/26 07:47:48;;;;;;;14.88;3.33;;;7.40;99.90;;;;;;6207525;23;20099;-57
2023/03/26 07:50:16;;;;;;;14.90;3.38;;;7.50;99.90;;;;;;6206165;23;20040;-58
2023/03/26 07:52:42;;;;;;;15.05;2.20;;;7.60;99.90;;;;;;6206766;23;20016;-59
2023/03/26 07:55:13;;;;;;;17.92;3.63;;;7.60;99.90;;;;;;6209010;23;20024;-58
2023/03/26 07:57:47;;;;;;;13.02;2.90;;;7.70;99.90;;;;;;6209932;23;20013;-57
2023/03/26 08:00:23;;;;;;;10.02;3.10;;;7.80;99.90;;;;;;6209567;23;20017;-58
2023/03/26 08:02:52;;;;;;;13.27;2.75;;;7.80;99.90;;;;;;6208885;23;20536;-59
2023/03/26 08:05:30;;;;;;;18.05;2.75;;;7.80;99.90;;;;;;6209047;23;20080;-57
2023/03/26 08:08:04;;;;;;;10.60;2.67;;;7.80;99.90;;;;;;6210071;23;20464;-54
2023/03/26 08:11:06;;;;;;;11.00;2.95;;;7.80;99.90;;;;;;6209346;23;20068;-56
2023/03/26 08:13:47;;;;;;;13.02;2.30;;;7.80;99.90;;;;;;6197424;23;20425;-56
2023/03/26 08:16:41;;;;;;;14.52;2.67;;;7.80;99.90;;;;;;6208963;23;20015;-57
2023/03/26 08:19:19;;;;;;;;;;;7.90;99.90;;;;;;6197015;23;20031;-56
2023/03/26 08:22:19;;;;;;;14.90;2.75;;;8.00;99.90;;;;;;6208074;23;19920;-56
2023/03/26 08:25:00;;;;;;;16.85;3.85;;;8.00;99.90;;;;;;6207812;23;20466;-55
2023/03/26 08:27:39;;;;;;;13.23;2.40;;;8.10;99.90;;;;;;6209965;23;20017;-56
2023/03/26 08:30:17;;;;;;;17.17;3.00;;;8.00;99.90;;;;;;6208349;23;20017;-56
2023/03/26 08:32:56;;;;;;;14.88;2.95;;;8.00;99.90;;;;;;6208384;23;20017;-55
2023/03/26 08:35:22;;;;;;;12.50;3.25;;;8.00;99.90;;;;;;6207597;23;20052;-56
2023/03/26 08:37:48;;;;;;;18.77;2.97;;;8.10;99.90;;;;;;6208960;23;20016;-56
2023/03/26 08:40:36;;;;;;;11.25;2.58;;;8.10;99.90;;;;;;6208324;23;20079;-56
2023/03/26 08:43:33;;;;;;;13.95;2.30;;;8.10;99.90;;;;;;6208535;23;20439;-56
2023/03/26 08:46:32;;;;;;;12.80;2.17;;;8.20;99.90;;;;;;6208000;23;20435;-56
2023/03/26 08:48:58;;;;;;;14.85;2.83;;;8.30;99.90;;;;;;6209122;23;20567;-56
2023/03/26 08:51:59;;;;;;;16.95;2.53;;;8.40;99.90;;;;;;6209834;23;20070;-57
2023/03/26 08:54:48;;;;;;;13.85;2.50;;;8.50;99.90;;;;;;6224002;23;20128;-56
2023/03/26 08:57:13;;;;;;;17.17;3.00;;;8.60;99.90;;;;;;6210020;23;20020;-56
2023/03/26 09:00:04;;;;;;;14.07;2.50;;;8.70;99.90;;;;;;6209217;23;20008;-56
2023/03/26 09:02:39;;;;;;;19.55;2.30;;;8.80;99.90;;;;;;6209899;23;20013;-56
2023/03/26 09:05:30;;;;;;;12.82;2.40;;;8.80;99.90;;;;;;6209221;23;20115;-55
2023/03/26 09:08:11;;;;;;;14.02;2.10;;;8.80;99.90;;;;;;6209125;23;20043;-57
2023/03/26 09:11:02;;;;;;;14.90;3.25;;;8.80;99.90;;;;;;6207728;23;20092;-56
2023/03/26 09:14:28;;;;;;;14.18;2.40;;;8.90;99.90;;;;;;6209838;23;20052;-57
2023/03/26 09:17:40;;;;;;;14.00;2.20;;;8.90;99.90;;;;;;6176097;23;20088;-57
2023/03/26 09:20:20;;;;;;;21.00;3.17;;;8.90;99.90;;;;;;6123387;23;20025;-55
2023/03/26 09:23:12;;;;;;;14.40;2.90;;;8.90;99.90;;;;;;6209572;23;20472;-57
2023/03/26 09:26:11;;;;;;;11.93;2.40;;;9.00;99.90;;;;;;6183804;23;20016;-55
2023/03/26 09:28:51;;;;;;;14.70;2.78;;;9.00;99.90;;;;;;6209015;23;20020;-57
2023/03/26 09:32:25;;;;;;;14.25;2.47;;;9.00;99.90;;;;;;6207453;23;20012;-56
2023/03/26 09:34:56;;;;;;;13.25;2.30;;;9.10;99.90;;;;;;6124593;23;20540;-57
2023/03/26 09:37:34;;;;;;;15.68;3.22;;;9.00;99.90;;;;;;6209188;23;20047;-56
2023/03/26 09:40:00;;;;;;;11.55;2.10;;;9.00;99.90;;;;;;6207080;23;20413;-56
2023/03/26 09:42:40;;;;;;;12.80;3.13;;;9.00;99.90;;;;;;6206753;23;20021;-56
2023/03/26 09:45:21;;;;;;;17.23;4.30;;;9.00;99.90;;;;;;6207009;23;20012;-57
2023/03/26 09:48:24;;;;;;;14.65;3.13;;;9.10;99.90;;;;;;6205813;23;20332;-57
2023/03/26 09:51:08;;;;;;;11.32;2.80;;;9.10;99.90;;;;;;6207162;23;20024;-56
2023/03/26 09:54:20;;;;;;;11.05;2.45;;;9.10;99.90;;;;;;6208037;23;20462;-57
2023/03/26 09:57:05;;;;;;;13.05;2.95;;;9.10;99.90;;;;;;6206331;23;20023;-56
2023/03/26 09:59:58;;;;;;;12.25;3.30;;;9.10;99.90;;;;;;6205594;23;20025;-57
2023/03/26 10:02:36;;;;;;;11.88;2.35;;;9.10;99.90;;;;;;6205094;23;20017;-57
2023/03/26 10:05:30;;;;;;;13.65;2.50;;;9.10;99.90;;;;;;6209345;23;20067;-57
2023/03/26 10:08:03;;;;;;;11.00;2.38;;;9.10;99.90;;;;;;6114827;22;20416;-57
2023/03/26 10:12:36;;;;;;;12.00;2.35;;;9.10;99.90;;;;;;5144414;27;20571;-55
2023/03/26 10:15:17;;;;;;;18.83;2.00;;;9.10;99.90;;;;;;5005224;27;20100;-56
2023/03/26 10:17:42;;;;;;;12.68;2.35;;;9.20;99.90;;;;;;5047895;28;20233;-55
2023/03/26 10:20:16;;;;;;;12.63;2.70;;;9.20;99.90;;;;;;5073959;27;20040;-56
2023/03/26 10:23:10;;;;;;;13.50;2.65;;;9.10;99.90;;;;;;5070762;28;20404;-59
2023/03/26 10:25:42;;;;;;;10.40;2.88;;;9.10;99.90;;;;;;5075933;28;20036;-62
2023/03/26 10:28:20;;;;;;;13.38;2.95;;;9.10;99.90;;;;;;5072559;28;20036;-61
2023/03/26 10:30:46;;;;;;;14.35;2.78;;;9.10;99.90;;;;;;5076943;28;20475;-61
2023/03/26 10:33:29;;;;;;;15.25;2.63;;;9.10;99.90;;;;;;5074375;28;20067;-58
2023/03/26 10:36:01;;;;;;;22.45;4.05;;;9.10;99.90;;;;;;5077119;28;20214;-59
2023/03/26 10:38:33;;;;;;;16.20;3.70;;;9.20;99.90;;;;;;5068367;28;20033;-59
2023/03/26 10:41:05;;;;;;;14.25;2.30;;;9.20;99.90;;;;;;5070246;28;20586;-59
2023/03/26 10:43:35;;;;;;;11.02;2.83;;;9.20;99.90;;;;;;5067657;28;20044;-59
2023/03/26 10:46:12;;;;;;;10.73;2.50;;;9.20;99.90;;;;;;5077295;28;20057;-59
2023/03/26 10:49:13;;;;;;;14.60;2.70;;;9.30;99.90;;;;;;5068150;28;20090;-58
2023/03/26 10:51:52;;;;;;;15.10;2.78;;;9.30;99.90;;;;;;5074324;28;20400;-59
2023/03/26 10:55:15;;;;;;;10.63;2.03;;;9.30;99.90;;;;;;5064818;28;20039;-59
2023/03/26 10:58:01;;;;;;;11.05;1.92;;;9.40;99.90;;;;;;5025741;28;20598;-61
2023/03/26 11:00:28;;;;;;;17.50;3.28;;;9.40;99.90;;;;;;5048029;28;20036;-61
2023/03/26 11:03:00;;;;;;;13.75;2.22;;;9.40;99.90;;;;;;5059114;28;20110;-62
2023/03/26 11:05:44;;;;;;;10.70;2.20;;;9.40;99.90;;;;;;5065956;28;20116;-62
2023/03/26 11:08:15;;;;;;;;;;;9.40;99.90;;;;;;5070583;28;20048;-61
2023/03/26 11:10:44;;;;;;;8.38;1.88;;;9.40;99.90;;;;;;5062670;28;19921;-61
2023/03/26 11:13:48;;;;;;;15.25;2.47;;;9.40;99.90;;;;;;5067415;28;20055;-60
2023/03/26 11:16:35;;;;;;;10.60;1.92;;;9.50;99.90;;;;;;5065482;28;20040;-59
2023/03/26 11:19:20;;;;;;;10.18;2.13;;;9.60;99.90;;;;;;5067279;28;20561;-58
2023/03/26 11:21:54;;;;;;;9.25;1.90;;;9.70;99.90;;;;;;5072136;28;20048;-57
2023/03/26 11:25:06;;;;;;;12.45;1.85;;;9.70;99.90;;;;;;5050137;28;20500;-57
2023/03/26 11:28:10;;;;;;;16.77;2.50;;;9.80;99.90;;;;;;5025601;28;20052;-58
2023/03/26 11:31:02;;;;;;;13.68;2.92;;;9.70;99.90;;;;;;5058557;28;20045;-61
2023/03/26 11:33:50;;;;;;;11.05;2.15;;;9.70;99.90;;;;;;5062407;28;20402;-59
2023/03/26 11:36:28;;;;;;;9.20;1.80;;;9.70;99.90;;;;;;5063382;28;20036;-61
2023/03/26 11:38:58;;;;;;;8.73;2.20;;;9.70;99.90;;;;;;5062236;28;20094;-59
2023/03/26 11:41:26;;;;;;;11.80;2.90;;;9.70;99.90;;;;;;5058726;28;20163;-60
2023/03/26 11:44:19;;;;;;;13.50;2.47;;;9.70;99.90;;;;;;5061125;28;20500;-60
2023/03/26 11:46:47;;;;;;;9.57;2.03;;;9.70;99.90;;;;;;5060249;28;20098;-58
2023/03/26 11:49:17;;;;;;;8.40;2.03;;;9.60;99.90;;;;;;5063176;28;20183;-60
2023/03/26 11:51:46;;;;;;;17.05;2.33;;;9.50;99.90;;;;;;5058513;28;21176;-58
2023/03/26 11:54:12;;;;;;;11.38;2.63;;;9.50;99.90;;;;;;5062125;28;20041;-60
2023/03/26 11:56:47;;;;;;;17.02;2.35;;;9.50;99.90;;;;;;5061402;28;20057;-60
2023/03/26 11:59:28;;;;;;;11.88;3.10;;;9.50;99.90;;;;;;5060398;28;20171;-59
2023/03/26 12:02:03;;;;;;;13.25;3.50;;;9.60;99.90;;;;;;5055501;28;20587;-58
2023/03/26 12:04:41;;;;;;;9.98;2.03;;;9.50;99.90;;;;;;5063426;28;20051;-60
2023/03/26 12:07:33;;;;;;;9.13;2.35;;;9.50;99.90;;;;;;5057596;28;20127;-60
2023/03/26 12:10:04;;;;;;;12.52;2.38;;;9.50;99.90;;;;;;5058357;28;20123;-62
2023/03/26 12:12:40;;;;;;;10.32;2.42;;;9.40;99.90;;;;;;5055854;28;20103;-58
2023/03/26 12:15:14;;;;;;;12.75;2.28;;;9.50;99.90;;;;;;5059431;28;20072;-60
2023/03/26 12:17:41;;;;;;;;;;;9.40;99.90;;;;;;5057828;28;20350;-60
2023/03/26 12:20:25;;;;;;;10.93;2.45;;;9.50;99.40;;;;;;5058317;28;20275;-61
2023/03/26 12:23:03;;;;;;;7.68;1.60;;;9.50;99.90;;;;;;5057086;28;20048;-59
2023/03/26 12:25:32;;;;;;;12.57;2.38;;;9.50;99.80;;;;;;5063656;28;20041;-59
2023/03/26 12:28:14;;;;;;;14.50;3.15;;;9.50;99.90;;;;;;5061535;28;20032;-62
2023/03/26 12:31:02;;;;;;;12.27;2.17;;;9.60;99.60;;;;;;5060245;28;20053;-59
2023/03/26 12:33:33;;;;;;;8.18;2.47;;;9.70;99.70;;;;;;5041457;28;20128;-60
2023/03/26 12:36:25;;;;;;;10.77;2.58;;;9.70;99.00;;;;;;5059385;28;20053;-60
2023/03/26 12:38:52;;;;;;;12.07;1.98;;;9.70;99.00;;;;;;5061783;28;20042;-58
2023/03/26 12:41:34;;;;;;;12.88;2.10;;;9.70;98.80;;;;;;5058558;28;20049;-59
2023/03/26 12:44:28;;;;;;;11.40;1.98;;;9.60;98.20;;;;;;5057096;28;20516;-59
2023/03/26 12:47:17;;;;;;;9.98;1.77;;;9.50;98.70;;;;;;5070771;28;20097;-60
2023/03/26 12:49:45;;;;;;;11.05;2.45;;;9.60;98.80;;;;;;5061897;28;20052;-60
2023/03/26 12:52:32;;;;;;;11.32;2.30;;;9.60;98.90;;;;;;5063196;28;20040;-60
2023/03/26 12:55:26;;;;;;;9.85;2.10;;;9.70;98.70;;;;;;5058760;28;20036;-60
2023/03/26 12:58:20;;;;;;;11.88;1.80;;;9.80;98.90;;;;;;5063320;28;20510;-59
2023/03/26 13:00:52;;;;;;;9.68;2.25;;;9.70;98.50;;;;;;5058342;28;20048;-60
2023/03/26 13:03:43;;;;;;;10.20;1.92;;;9.70;99.00;;;;;;5064560;28;20503;-59
2023/03/26 13:06:26;;;;;;;10.77;2.42;;;9.60;99.10;;;;;;5058154;28;20511;-59
2023/03/26 13:09:10;;;;;;;11.20;1.60;;;9.50;98.30;;;;;;5057497;28;20377;-58
2023/03/26 13:12:13;;;;;;;10.68;2.13;;;9.50;99.20;;;;;;5057837;28;20715;-59
2023/03/26 13:14:56;;;;;;;14.18;2.30;;;9.40;98.30;;;;;;5053403;28;20531;-60
2023/03/26 13:17:52;;;;;;;8.48;1.55;;;9.40;98.50;;;;;;5048362;28;20086;-59
2023/03/26 13:20:24;;;;;;;8.10;1.80;;;9.50;98.20;;;;;;5050029;28;20083;-59
2023/03/26 13:22:54;;;;;;;11.82;1.80;;;9.50;98.90;;;;;;5065682;28;20483;-59
2023/03/26 13:25:31;;;;;;;12.95;1.95;;;9.50;97.90;;;;;;5053550;28;20120;-62
2023/03/26 13:28:18;;;;;;;10.50;1.63;;;9.50;98.50;;;;;;5042974;28;20036;-59